createdAt,value
2023-01-19T00:00:41.963Z,5.96
2023-01-19T00:03:16.376Z,5.99
2023-01-19T00:05:44.407Z,6.00
2023-01-19T00:08:17.777Z,6.00
2023-01-19T00:10:47.251Z,5.99
2023-01-19T00:13:15.216Z,6.00
2023-01-19T00:15:42.910Z,6.01
2023-01-19T00:18:11.151Z,6.02
2023-01-19T00:20:39.891Z,6.03
2023-01-19T00:23:10.522Z,6.03
2023-01-19T00:25:42.815Z,6.03
2023-01-19T00:28:11.386Z,6.03
2023-01-19T00:30:39.563Z,6.02
2023-01-19T00:33:07.622Z,6.05
2023-01-19T00:35:35.896Z,6.08
2023-01-19T00:38:03.686Z,6.07
2023-01-19T00:40:31.106Z,6.05
2023-01-19T00:42:59.005Z,6.04
2023-01-19T00:45:26.686Z,6.06
2023-01-19T00:47:57.478Z,6.07
2023-01-19T00:50:26.181Z,6.07
2023-01-19T00:52:54.763Z,6.03
2023-01-19T00:55:22.730Z,6.02
2023-01-19T00:57:50.602Z,6.02
2023-01-19T01:00:22.029Z,6.04
2023-01-19T01:02:50.345Z,6.06
2023-01-19T01:05:17.974Z,6.06
2023-01-19T01:07:45.733Z,6.07
2023-01-19T01:10:24.221Z,6.08
2023-01-19T01:12:53.608Z,6.06
2023-01-19T01:15:26.515Z,6.06
2023-01-19T01:17:53.892Z,6.09
2023-01-19T01:20:23.027Z,6.08
2023-01-19T01:22:51.582Z,6.11
2023-01-19T01:25:22.762Z,6.14
2023-01-19T01:27:50.305Z,6.13
2023-01-19T01:30:17.532Z,6.08
2023-01-19T01:32:44.680Z,6.11
2023-01-19T01:35:12.545Z,6.11
2023-01-19T01:37:39.689Z,6.08
2023-01-19T01:40:07.562Z,6.07
2023-01-19T01:42:35.630Z,6.11
2023-01-19T01:45:06.267Z,6.06
2023-01-19T01:47:44.599Z,6.05
2023-01-19T01:50:18.803Z,6.05
2023-01-19T01:53:07.551Z,6.04
2023-01-19T01:55:41.687Z,6.06
2023-01-19T01:58:09.206Z,6.04
2023-01-19T02:00:55.313Z,6.06
2023-01-19T02:03:23.544Z,6.06
2023-01-19T02:05:50.934Z,6.06
2023-01-19T02:08:38.362Z,6.06
2023-01-19T02:11:25.021Z,6.06
2023-01-19T02:13:52.544Z,6.09
2023-01-19T02:16:20.013Z,6.10
2023-01-19T02:18:47.748Z,6.13
2023-01-19T02:21:19.280Z,6.15
2023-01-19T02:23:50.900Z,6.16
2023-01-19T02:26:20.865Z,6.18
2023-01-19T02:28:51.244Z,6.22
2023-01-19T02:31:18.745Z,6.24
2023-01-19T02:33:46.507Z,6.24
2023-01-19T02:36:15.642Z,6.36
2023-01-19T02:38:43.675Z,6.40
2023-01-19T02:41:12.738Z,6.40
2023-01-19T02:43:40.435Z,6.39
2023-01-19T02:46:08.794Z,6.35
2023-01-19T02:48:36.589Z,6.32
2023-01-19T02:51:12.327Z,6.31
2023-01-19T02:53:53.813Z,6.29
2023-01-19T02:56:40.827Z,6.29
2023-01-19T02:59:26.919Z,6.26
2023-01-19T03:02:18.029Z,6.25
2023-01-19T03:05:11.196Z,6.27
2023-01-19T03:08:03.707Z,6.25
2023-01-19T03:10:34.773Z,6.25
2023-01-19T03:13:10.946Z,6.24
2023-01-19T03:15:59.563Z,6.23
2023-01-19T03:18:28.477Z,6.23
2023-01-19T03:20:57.180Z,6.22
2023-01-19T03:23:26.524Z,6.22
2023-01-19T03:25:56.836Z,6.24
2023-01-19T03:28:26.894Z,6.24
2023-01-19T03:31:00.980Z,6.23
2023-01-19T03:33:37.697Z,6.26
2023-01-19T03:36:27.782Z,6.26
2023-01-19T03:38:55.438Z,6.28
2023-01-19T03:41:23.168Z,6.33
2023-01-19T03:43:51.587Z,6.35
2023-01-19T03:46:19.539Z,6.34
2023-01-19T03:48:47.316Z,6.34
2023-01-19T03:51:14.977Z,6.33
2023-01-19T03:53:42.536Z,6.34
2023-01-19T03:56:18.389Z,6.36
2023-01-19T03:58:46.323Z,6.37
2023-01-19T04:01:15.267Z,6.39
2023-01-19T08:12:44.633Z,8.20
2023-01-19T08:15:12.814Z,8.33
2023-01-19T08:17:40.790Z,8.36
2023-01-19T08:20:09.647Z,8.40
2023-01-19T08:22:47.876Z,8.44
2023-01-19T08:25:27.928Z,8.47
2023-01-19T08:27:57.034Z,8.53
2023-01-19T08:30:31.460Z,8.60
2023-01-19T08:33:04.591Z,8.67
2023-01-19T08:36:08.765Z,8.68
2023-01-19T08:38:36.821Z,8.72
2023-01-19T08:41:04.699Z,8.72
2023-01-19T08:43:34.042Z,8.72
2023-01-19T08:46:03.988Z,8.72
2023-01-19T08:48:31.866Z,8.70
2023-01-19T08:51:02.498Z,8.70
2023-01-19T08:53:30.156Z,8.77
2023-01-19T08:56:00.144Z,8.87
2023-01-19T08:58:27.735Z,8.92
2023-01-19T09:01:24.494Z,8.96
2023-01-19T09:04:30.551Z,9.00
2023-01-19T09:06:58.614Z,9.03
2023-01-19T09:09:26.579Z,9.08
2023-01-19T09:11:54.942Z,9.12
2023-01-19T09:14:22.625Z,9.15
2023-01-19T09:16:52.672Z,9.21
2023-01-19T09:19:20.193Z,9.23
2023-01-19T09:21:47.959Z,9.25
2023-01-19T09:24:15.451Z,9.24
2023-01-19T09:26:43.359Z,9.23
2023-01-19T09:29:11.154Z,9.21
2023-01-19T09:31:40.556Z,9.23
2023-01-19T09:34:08.323Z,9.24
2023-01-19T09:36:38.679Z,9.28
2023-01-19T09:39:07.677Z,9.29
2023-01-19T09:41:37.274Z,9.32
2023-01-19T09:44:05.022Z,9.35
2023-01-19T09:46:42.301Z,9.40
2023-01-19T09:49:16.829Z,9.45
2023-01-19T09:51:46.932Z,9.47
2023-01-19T09:54:45.653Z,9.49
2023-01-19T09:57:13.894Z,9.52
2023-01-19T09:59:43.951Z,9.57
2023-01-19T10:02:18.768Z,9.60
2023-01-19T10:04:52.586Z,9.63
2023-01-19T10:07:45.497Z,9.68
2023-01-19T10:10:20.849Z,9.74
2023-01-19T10:13:32.327Z,9.78
2023-01-19T10:16:42.811Z,9.87
2023-01-19T10:19:46.426Z,9.94
2023-01-19T10:22:24.821Z,10.02
2023-01-19T10:24:57.491Z,10.13
2023-01-19T10:27:29.614Z,10.26
2023-01-19T10:29:57.947Z,10.42
2023-01-19T10:32:27.351Z,10.58
2023-01-19T10:34:55.302Z,10.78
2023-01-19T10:37:23.075Z,11.00
2023-01-19T10:40:09.804Z,11.19
2023-01-19T10:42:40.161Z,11.50
2023-01-19T10:45:21.500Z,11.74
2023-01-19T10:47:49.481Z,12.14
2023-01-19T10:50:33.810Z,12.62
2023-01-19T10:53:04.267Z,13.30
2023-01-19T10:55:35.021Z,13.99
2023-01-19T10:58:04.163Z,14.65
2023-01-19T11:00:43.123Z,15.16
2023-01-19T11:03:31.978Z,15.69
2023-01-19T11:06:15.885Z,16.24
2023-01-19T11:08:47.917Z,16.50
2023-01-19T11:11:16.398Z,16.72
2023-01-19T11:13:44.707Z,16.93
2023-01-19T11:16:29.677Z,17.07
2023-01-19T11:19:18.941Z,17.18
2023-01-19T11:21:46.602Z,17.27
2023-01-19T11:24:16.688Z,17.34
2023-01-19T11:26:51.501Z,17.29
2023-01-19T11:29:26.281Z,17.11
2023-01-19T11:31:54.703Z,17.08
2023-01-19T11:34:23.676Z,17.24
2023-01-19T11:37:05.644Z,17.48
2023-01-19T11:39:35.714Z,17.83
2023-01-19T11:42:04.246Z,18.08
2023-01-19T11:44:37.450Z,18.03
2023-01-19T11:47:06.805Z,17.85
2023-01-19T11:49:43.824Z,17.76
2023-01-19T11:52:24.381Z,17.83
2023-01-19T11:55:00.547Z,17.97
2023-01-19T11:57:27.995Z,17.97
2023-01-19T11:59:55.693Z,17.85
2023-01-19T12:02:26.805Z,17.90
2023-01-19T12:04:59.411Z,18.04
2023-01-19T12:07:30.606Z,18.07
2023-01-19T12:10:32.292Z,18.08
2023-01-19T12:13:00.264Z,18.13
2023-01-19T12:15:39.840Z,18.31
2023-01-19T12:18:09.182Z,18.29
2023-01-19T12:20:45.289Z,18.03
2023-01-19T12:23:31.654Z,18.02
2023-01-19T12:26:05.169Z,18.06
2023-01-19T12:28:34.458Z,17.92
2023-01-19T12:31:02.140Z,17.80
2023-01-19T12:33:34.910Z,17.79
2023-01-19T12:36:35.742Z,17.86
2023-01-19T12:39:20.619Z,17.75
2023-01-19T12:41:48.976Z,17.58
2023-01-19T12:44:20.954Z,17.39
2023-01-19T12:46:54.891Z,17.10
2023-01-19T12:49:29.387Z,16.78
2023-01-19T12:52:23.549Z,16.53
2023-01-19T12:54:56.958Z,16.42
2023-01-19T12:57:33.013Z,16.37
2023-01-19T13:00:24.177Z,16.17
2023-01-19T14:14:30.096Z,10.46
2023-01-19T14:16:58.054Z,10.32
2023-01-19T14:19:26.105Z,10.19
2023-01-19T14:22:01.472Z,10.06
2023-01-19T14:24:37.473Z,9.93
2023-01-19T14:27:24.725Z,9.80
2023-01-19T14:29:54.235Z,9.69
2023-01-19T14:32:25.175Z,9.59
2023-01-19T14:35:12.889Z,9.51
2023-01-19T14:37:48.133Z,9.44
2023-01-19T14:40:18.807Z,9.37
2023-01-19T14:42:52.766Z,9.30
2023-01-19T14:45:40.915Z,9.23
2023-01-19T14:48:19.117Z,9.17
2023-01-19T14:51:01.930Z,9.12
2023-01-19T14:53:37.158Z,9.07
2023-01-19T14:56:05.992Z,9.03
2023-01-19T14:58:34.408Z,9.00
2023-01-19T15:01:02.385Z,8.96
2023-01-19T15:03:44.395Z,8.91
2023-01-19T15:06:21.802Z,8.86
2023-01-19T15:08:50.541Z,8.79
2023-01-19T15:11:27.964Z,8.73
2023-01-19T15:13:55.953Z,8.66
2023-01-19T15:16:25.245Z,8.59
2023-01-19T15:18:53.020Z,8.53
2023-01-19T15:21:23.888Z,8.47
2023-01-19T15:23:53.789Z,8.41
2023-01-19T15:26:23.912Z,8.36
2023-01-19T15:28:51.742Z,8.32
2023-01-19T15:31:21.372Z,8.28
2023-01-19T15:33:49.146Z,8.24
2023-01-19T15:36:19.472Z,8.19
2023-01-19T15:38:47.533Z,8.13
2023-01-19T15:41:30.218Z,8.08
2023-01-19T15:43:58.140Z,8.05
2023-01-19T15:46:26.275Z,8.02
2023-01-19T15:48:53.902Z,8.00
2023-01-19T15:51:23.319Z,7.97
2023-01-19T15:53:51.308Z,7.95
2023-01-19T15:56:25.148Z,7.92
2023-01-19T15:58:53.272Z,7.90
2023-01-19T16:01:31.782Z,7.87
2023-01-19T16:04:01.463Z,7.85
2023-01-19T16:06:30.083Z,7.82
2023-01-19T16:09:01.759Z,7.79
2023-01-19T16:11:33.627Z,7.75
2023-01-19T16:14:01.462Z,7.70
2023-01-19T16:16:29.794Z,7.65
2023-01-19T16:18:58.068Z,7.63
2023-01-19T16:21:25.796Z,7.60
2023-01-19T16:23:54.174Z,7.57
2023-01-19T16:26:25.000Z,7.54
2023-01-19T16:28:52.753Z,7.51
2023-01-19T16:31:20.536Z,7.48
2023-01-19T16:33:48.485Z,7.44
2023-01-19T16:36:24.263Z,7.41
2023-01-19T16:38:52.307Z,7.38
2023-01-19T16:41:20.486Z,7.35
2023-01-19T16:43:53.298Z,7.33
2023-01-19T16:46:32.857Z,7.30
2023-01-19T16:49:03.351Z,7.27
2023-01-19T16:51:31.400Z,7.24
2023-01-19T16:54:00.119Z,7.24
2023-01-19T16:56:28.066Z,7.22
2023-01-19T16:58:56.652Z,7.20
2023-01-19T17:01:25.597Z,7.16
2023-01-19T17:03:53.561Z,7.12
2023-01-19T17:06:24.867Z,7.09
2023-01-19T17:08:53.051Z,7.06
2023-01-19T17:11:22.746Z,7.05
2023-01-19T17:13:53.150Z,7.05
2023-01-19T17:16:21.687Z,7.04
2023-01-19T17:18:49.601Z,7.01
2023-01-19T17:21:18.391Z,6.97
2023-01-19T17:23:47.901Z,6.93
2023-01-19T17:26:16.083Z,6.88
2023-01-19T17:28:44.346Z,6.83
2023-01-19T17:31:13.978Z,6.79
2023-01-19T17:33:44.408Z,6.77
2023-01-19T17:36:17.469Z,6.73
2023-01-19T17:38:45.596Z,6.70
2023-01-19T17:41:14.596Z,6.67
2023-01-19T17:43:42.705Z,6.65
2023-01-19T17:46:10.837Z,6.63
2023-01-19T17:48:38.845Z,6.62
2023-01-19T17:51:08.965Z,6.62
2023-01-19T17:53:38.540Z,6.61
2023-01-19T17:56:07.844Z,6.60
2023-01-19T17:58:35.564Z,6.58
2023-01-19T18:01:14.226Z,6.55
2023-01-19T18:03:42.352Z,6.55
2023-01-19T18:06:10.597Z,6.55
2023-01-19T18:08:39.834Z,6.54
2023-01-19T18:11:07.650Z,6.53
2023-01-19T18:13:35.841Z,6.52
2023-01-19T18:16:05.802Z,6.52
2023-01-19T18:18:34.545Z,6.52
2023-01-19T18:21:04.260Z,6.51
2023-01-19T18:23:33.883Z,6.48
2023-01-19T18:26:08.826Z,6.46
2023-01-19T18:28:36.710Z,6.44
2023-01-19T18:31:10.013Z,6.41
2023-01-19T18:33:40.841Z,6.38
2023-01-19T18:36:09.466Z,6.35
2023-01-19T18:38:38.138Z,6.34
2023-01-19T18:41:08.517Z,6.34
2023-01-19T18:43:36.506Z,6.33
2023-01-19T18:46:04.515Z,6.33
2023-01-19T18:48:32.586Z,6.31
2023-01-19T18:51:05.066Z,6.29
2023-01-19T18:53:32.733Z,6.26
2023-01-19T18:56:02.258Z,6.21
2023-01-19T18:58:31.803Z,6.16
2023-01-19T19:01:00.303Z,6.12
2023-01-19T19:03:28.385Z,6.10
2023-01-19T19:05:57.521Z,6.09
2023-01-19T19:08:25.414Z,6.07
2023-01-19T19:10:53.415Z,6.05
2023-01-19T19:13:22.404Z,6.03
2023-01-19T19:15:52.774Z,6.02
2023-01-19T19:18:20.810Z,6.00
2023-01-19T19:20:48.817Z,5.98
2023-01-19T19:23:16.927Z,5.95
2023-01-19T19:25:44.741Z,5.92
2023-01-19T19:28:12.677Z,5.93
2023-01-19T19:30:42.008Z,5.91
2023-01-19T19:33:09.848Z,5.89
2023-01-19T19:35:37.653Z,5.88
2023-01-19T19:38:05.582Z,5.88
2023-01-19T19:40:33.452Z,5.88
2023-01-19T19:43:01.425Z,5.89
2023-01-19T19:45:29.286Z,5.89
2023-01-19T19:47:57.876Z,5.92
2023-01-19T19:50:25.732Z,5.92
2023-01-19T19:52:54.051Z,5.92
2023-01-19T19:55:22.369Z,5.91
2023-01-19T19:57:50.979Z,5.90
2023-01-19T20:00:19.621Z,5.90
2023-01-19T20:02:47.504Z,5.88
2023-01-19T20:05:15.878Z,5.85
2023-01-19T20:07:47.587Z,5.82
2023-01-19T20:10:15.533Z,5.80
2023-01-19T20:12:43.483Z,5.77
2023-01-19T20:15:12.827Z,5.75
2023-01-19T20:17:40.929Z,5.73
2023-01-19T20:20:10.360Z,5.69
2023-01-19T20:22:38.227Z,5.68
2023-01-19T20:25:07.533Z,5.68
2023-01-19T20:27:35.912Z,5.66
2023-01-19T20:30:04.266Z,5.62
2023-01-19T20:32:32.562Z,5.57
2023-01-19T20:35:01.146Z,5.54
2023-01-19T20:37:28.891Z,5.51
2023-01-19T20:39:58.496Z,5.46
2023-01-19T20:42:26.793Z,5.42
2023-01-19T20:44:55.989Z,5.41
2023-01-19T20:47:24.879Z,5.40
2023-01-19T20:49:52.963Z,5.38
2023-01-19T20:52:23.379Z,5.37
2023-01-19T20:54:52.571Z,5.37
2023-01-19T20:57:20.372Z,5.37
2023-01-19T20:59:48.204Z,5.38
2023-01-19T21:02:17.984Z,5.38
2023-01-19T21:04:45.575Z,5.37
2023-01-19T21:07:13.345Z,5.34
2023-01-19T21:09:41.045Z,5.31
2023-01-19T21:12:09.992Z,5.28
2023-01-19T21:14:37.963Z,5.25
2023-01-19T21:17:05.628Z,5.23
2023-01-19T21:19:33.513Z,5.20
2023-01-19T21:22:02.110Z,5.16
2023-01-19T21:24:30.149Z,5.14
2023-01-19T21:26:57.803Z,5.13
2023-01-19T21:29:25.516Z,5.10
2023-01-19T21:31:53.678Z,5.11
2023-01-19T21:34:21.722Z,5.13
2023-01-19T21:36:50.101Z,5.13
2023-01-19T21:39:18.073Z,5.10
2023-01-19T21:41:46.146Z,5.06
2023-01-19T21:44:14.817Z,5.02
2023-01-19T21:46:42.885Z,5.00
2023-01-19T21:49:16.046Z,4.99
2023-01-19T21:51:45.138Z,4.97
2023-01-19T21:54:13.242Z,4.96
2023-01-19T21:56:43.790Z,4.97
2023-01-19T21:59:13.388Z,4.98
2023-01-19T22:01:41.768Z,5.00
2023-01-19T22:04:09.528Z,5.03
2023-01-19T22:06:37.178Z,5.05
2023-01-19T22:09:05.781Z,5.05
2023-01-19T22:11:33.197Z,5.06
2023-01-19T22:14:00.779Z,5.08
2023-01-19T22:16:29.166Z,5.09
2023-01-19T22:18:59.734Z,5.12
2023-01-19T22:21:32.927Z,5.14
2023-01-19T22:24:01.406Z,5.14
2023-01-19T22:26:30.352Z,5.15
2023-01-19T22:28:59.695Z,5.13
2023-01-19T22:31:28.399Z,5.14
2023-01-19T22:33:56.631Z,5.16
2023-01-19T22:36:26.224Z,5.18
2023-01-19T22:38:54.016Z,5.18
2023-01-19T22:41:26.587Z,5.19
2023-01-19T22:43:56.575Z,5.20
2023-01-19T22:46:25.652Z,5.22
2023-01-19T22:48:53.483Z,5.23
2023-01-19T22:51:22.833Z,5.24
2023-01-19T22:53:50.704Z,5.25
2023-01-19T22:56:23.178Z,5.25
2023-01-19T22:58:51.253Z,5.26
2023-01-19T23:01:26.815Z,5.24
2023-01-19T23:03:54.914Z,5.22
2023-01-19T23:06:24.118Z,5.23
2023-01-19T23:08:51.831Z,5.24
2023-01-19T23:11:21.327Z,5.25
2023-01-19T23:13:49.205Z,5.25
2023-01-19T23:16:16.859Z,5.26
2023-01-19T23:18:44.722Z,5.27
2023-01-19T23:21:14.018Z,5.27
2023-01-19T23:23:41.994Z,5.28
2023-01-19T23:26:19.900Z,5.30
2023-01-19T23:28:47.788Z,5.31
2023-01-19T23:31:22.600Z,5.31
2023-01-19T23:33:51.478Z,5.32
2023-01-19T23:36:19.475Z,5.31
2023-01-19T23:38:51.313Z,5.30
2023-01-19T23:41:20.402Z,5.28
2023-01-19T23:43:48.117Z,5.25
2023-01-19T23:46:16.359Z,5.27
2023-01-19T23:48:44.921Z,5.31
2023-01-19T23:51:39.434Z,5.33
2023-01-19T23:54:06.923Z,5.32
2023-01-19T23:56:35.780Z,5.31
2023-01-19T23:59:10.983Z,5.29
